Time;durP1;ratioP1;P1;durP2;ratioP2;P2;SDS_P1;SDS_P2;PMS_P1;PMS_P2;Temp;Humidity;BMP_temperature;BMP_pressure;BME280_temperature;BME280_humidity;BME280_pressure;Samples;Min_cycle;Max_cycle;Signal;HPM_P1;HPM_P2
2021/12/12 00:00:57;;;;;;;9.85;6.30;;;2.80;99.90;;;;;;5081387;28;20020;-82
2021/12/12 00:03:39;;;;;;;8.95;6.00;;;2.70;99.90;;;;;;5099465;28;20098;-81
2021/12/12 00:06:28;;;;;;;9.48;6.07;;;2.80;99.90;;;;;;5099479;28;20024;-82
2021/12/12 00:08:59;;;;;;;10.82;7.18;;;2.70;99.90;;;;;;5081884;28;20046;-82
2021/12/12 00:11:29;;;;;;;11.30;7.68;;;2.60;99.90;;;;;;5078597;28;20028;-81
2021/12/12 00:14:26;;;;;;;14.93;8.88;;;2.60;99.90;;;;;;5077919;28;20031;-81
2021/12/12 00:16:54;;;;;;;13.95;8.05;;;2.60;99.90;;;;;;5078065;28;20043;-81
2021/12/12 00:19:20;;;;;;;10.98;7.55;;;2.70;99.90;;;;;;5078039;28;20096;-81
2021/12/12 00:21:49;;;;;;;14.30;8.52;;;2.70;99.90;;;;;;5077818;28;20158;-81
2021/12/12 00:24:17;;;;;;;11.77;7.25;;;2.60;99.90;;;;;;5078309;28;20191;-81
2021/12/12 00:26:44;;;;;;;10.98;7.55;;;2.50;99.90;;;;;;5077553;28;20024;-81
2021/12/12 00:29:12;;;;;;;10.63;7.28;;;2.60;99.90;;;;;;5077725;28;20020;-81
2021/12/12 00:31:38;;;;;;;11.65;7.32;;;2.50;99.90;;;;;;5095733;28;20035;-81
2021/12/12 00:34:05;;;;;;;8.68;6.18;;;2.50;99.90;;;;;;5077496;28;20111;-81
2021/12/12 00:36:34;;;;;;;11.30;7.30;;;2.50;99.90;;;;;;5077581;28;20571;-81
2021/12/12 00:39:12;;;;;;;11.73;7.45;;;2.60;99.90;;;;;;5077317;28;20047;-81
2021/12/12 00:41:58;;;;;;;12.77;6.45;;;2.60;99.90;;;;;;5077720;28;20078;-82
2021/12/12 00:44:25;;;;;;;10.25;6.25;;;2.60;99.90;;;;;;5077495;28;20024;-82
2021/12/12 00:46:55;;;;;;;8.73;6.47;;;2.60;99.90;;;;;;5077323;28;20468;-82
2021/12/12 00:49:22;;;;;;;11.18;6.75;;;2.60;99.90;;;;;;5077281;28;20553;-82
2021/12/12 00:51:50;;;;;;;12.20;7.38;;;2.50;99.90;;;;;;5077171;28;20459;-81
2021/12/12 00:54:17;;;;;;;11.68;7.55;;;2.50;99.90;;;;;;5077022;28;20067;-82
2021/12/12 00:56:43;;;;;;;13.68;7.93;;;2.50;99.90;;;;;;5077115;28;20032;-82
2021/12/12 00:59:11;;;;;;;10.23;6.95;;;2.60;99.90;;;;;;5077121;28;20388;-81
2021/12/12 01:01:46;;;;;;;15.60;10.50;;;2.60;99.90;;;;;;5076907;28;20028;-81
2021/12/12 01:04:19;;;;;;;13.15;8.68;;;2.60;99.90;;;;;;5077012;28;20024;-82
2021/12/12 01:06:47;;;;;;;17.52;10.52;;;2.70;99.90;;;;;;5077104;28;20035;-81
2021/12/12 01:09:20;;;;;;;12.40;6.88;;;2.70;99.90;;;;;;5076802;28;20040;-81
2021/12/12 01:11:50;;;;;;;9.27;6.18;;;2.60;99.90;;;;;;5076881;28;20031;-82
2021/12/12 01:14:27;;;;;;;8.88;5.90;;;2.60;99.90;;;;;;5076814;28;20027;-81
2021/12/12 01:16:55;;;;;;;9.18;6.05;;;2.50;99.90;;;;;;5076812;28;20111;-81
2021/12/12 01:19:32;;;;;;;9.77;6.10;;;2.40;99.90;;;;;;5094755;28;20078;-81
2021/12/12 01:22:04;;;;;;;9.38;6.07;;;2.30;99.90;;;;;;5076660;28;20030;-81
2021/12/12 01:24:34;;;;;;;12.05;6.20;;;2.30;99.90;;;;;;5076313;28;20073;-82
2021/12/12 01:27:04;;;;;;;9.73;6.28;;;2.30;99.90;;;;;;5076612;28;20467;-82
2021/12/12 01:29:30;;;;;;;12.45;5.80;;;2.40;99.90;;;;;;5094984;28;20468;-82
2021/12/12 01:31:59;;;;;;;10.77;5.90;;;2.40;99.90;;;;;;5076495;28;20024;-82
2021/12/12 01:34:29;;;;;;;7.80;5.93;;;2.40;99.90;;;;;;5094567;28;20027;-81
2021/12/12 01:39:56;;;;;;;8.65;5.90;;;2.50;99.90;;;;;;5094370;28;20047;-81
2021/12/12 01:42:28;;;;;;;8.82;6.30;;;2.50;99.90;;;;;;5076350;28;20052;-82
2021/12/12 01:45:07;;;;;;;9.32;6.28;;;2.50;99.90;;;;;;5076261;28;20035;-82
2021/12/12 01:47:46;;;;;;;9.45;6.22;;;2.40;99.90;;;;;;5076171;28;20123;-81
2021/12/12 01:50:35;;;;;;;7.65;5.75;;;2.40;99.90;;;;;;5076164;28;20020;-82
2021/12/12 01:53:05;;;;;;;11.23;6.60;;;2.50;99.90;;;;;;5075228;28;20042;-81
2021/12/12 01:55:44;;;;;;;12.80;7.03;;;2.60;99.90;;;;;;5076032;28;20433;-81
2021/12/12 01:58:16;;;;;;;10.10;6.97;;;2.50;99.90;;;;;;5075922;28;20024;-82
2021/12/12 02:00:51;;;;;;;7.65;5.15;;;2.50;99.90;;;;;;5094118;28;20047;-82
2021/12/12 02:03:17;;;;;;;;;;;2.60;99.90;;;;;;5094666;28;20024;-82
2021/12/12 02:05:43;;;;;;;10.18;5.43;;;2.60;99.90;;;;;;5094028;28;19903;-81
2021/12/12 02:08:15;;;;;;;14.27;5.75;;;2.40;99.90;;;;;;5075612;28;20020;-82
2021/12/12 02:10:49;;;;;;;9.05;5.68;;;2.40;99.90;;;;;;5075599;28;20077;-81
2021/12/12 02:13:18;;;;;;;7.85;5.50;;;2.30;99.90;;;;;;5093814;28;20027;-81
2021/12/12 02:15:48;;;;;;;7.68;5.97;;;2.30;99.90;;;;;;5075669;28;20039;-81
2021/12/12 02:18:17;;;;;;;10.15;5.63;;;2.30;99.90;;;;;;5093822;28;20024;-82
2021/12/12 02:21:04;;;;;;;11.73;6.22;;;2.40;99.90;;;;;;5075632;28;20072;-81
2021/12/12 02:37:13;;;;;;;7.50;5.93;;;2.20;99.90;;;;;;5094241;28;20027;-81
2021/12/12 02:39:40;;;;;;;10.85;5.25;;;2.10;99.90;;;;;;5075209;28;20592;-82
2021/12/12 02:42:11;;;;;;;7.50;5.53;;;2.30;99.90;;;;;;5075259;28;20024;-82
2021/12/12 02:44:39;;;;;;;7.25;5.03;;;2.30;99.90;;;;;;5093626;28;20035;-82
2021/12/12 02:47:12;;;;;;;9.57;5.43;;;2.30;99.90;;;;;;5075410;28;20371;-82
2021/12/12 02:49:53;;;;;;;7.85;5.53;;;2.20;99.90;;;;;;5093533;28;20024;-82
2021/12/12 02:52:27;;;;;;;9.15;4.88;;;2.20;99.90;;;;;;5093550;28;20034;-82
2021/12/12 02:54:53;;;;;;;9.93;5.38;;;2.20;99.90;;;;;;5093713;28;20056;-82
2021/12/12 02:57:20;;;;;;;8.20;4.85;;;2.10;99.90;;;;;;5093388;28;20531;-81
2021/12/12 02:59:50;;;;;;;8.85;4.88;;;2.10;99.90;;;;;;5075165;28;20369;-81
2021/12/12 03:02:27;;;;;;;8.35;4.78;;;2.00;99.90;;;;;;5075098;28;20017;-82
2021/12/12 03:04:56;;;;;;;7.45;4.70;;;2.00;99.90;;;;;;5093289;28;20486;-81
2021/12/12 03:07:22;;;;;;;8.10;4.65;;;2.00;99.90;;;;;;5093268;28;20055;-81
2021/12/12 03:09:55;;;;;;;9.15;4.90;;;2.10;99.90;;;;;;5075149;28;20035;-82
2021/12/12 03:12:31;;;;;;;7.72;4.45;;;2.00;99.90;;;;;;5075910;28;20062;-81
2021/12/12 03:15:00;;;;;;;8.15;4.55;;;2.10;99.90;;;;;;5074954;28;20024;-81
2021/12/12 03:17:26;;;;;;;10.55;4.80;;;2.00;99.90;;;;;;5092965;28;20024;-81
2021/12/12 03:20:01;;;;;;;6.45;4.45;;;1.80;99.90;;;;;;5074810;28;20020;-82
2021/12/12 03:22:28;;;;;;;6.88;4.25;;;1.80;99.90;;;;;;5093020;28;20523;-82
2021/12/12 03:24:54;;;;;;;5.35;4.05;;;1.90;99.90;;;;;;5074750;28;20411;-81
2021/12/12 03:27:22;;;;;;;4.82;3.95;;;2.10;99.90;;;;;;5093001;28;20039;-82
2021/12/12 03:29:50;;;;;;;6.38;4.13;;;2.10;99.90;;;;;;5092825;28;20024;-82
2021/12/12 03:32:19;;;;;;;5.78;3.80;;;2.20;99.90;;;;;;5074608;28;20020;-81
2021/12/12 03:34:53;;;;;;;5.63;4.05;;;2.20;99.90;;;;;;5074624;28;20387;-81
2021/12/12 03:37:20;;;;;;;;;;;2.20;99.90;;;;;;5075249;28;20111;-82
2021/12/12 03:39:48;;;;;;;7.05;3.60;;;2.10;99.90;;;;;;5092897;28;19963;-82
2021/12/12 03:42:19;;;;;;;9.45;4.45;;;2.10;99.90;;;;;;5074672;28;20055;-82
2021/12/12 03:44:47;;;;;;;7.03;4.45;;;2.10;99.90;;;;;;5074594;28;20020;-81
2021/12/12 03:47:26;;;;;;;5.40;3.80;;;2.00;99.90;;;;;;5077538;28;20028;-81
2021/12/12 03:49:53;;;;;;;9.00;4.00;;;1.90;99.90;;;;;;5096896;28;20025;-82
2021/12/12 03:52:20;;;;;;;6.50;3.95;;;1.90;99.90;;;;;;5078422;28;20076;-82
2021/12/12 03:54:48;;;;;;;12.32;4.10;;;1.80;99.90;;;;;;5096910;28;20028;-82
2021/12/12 03:57:17;;;;;;;7.28;3.95;;;1.70;99.90;;;;;;5096426;28;20020;-82
2021/12/12 03:59:43;;;;;;;5.85;3.63;;;1.70;99.90;;;;;;5096373;28;20027;-81
2021/12/12 04:02:09;;;;;;;6.75;4.07;;;1.40;99.90;;;;;;5096438;28;20024;-82
2021/12/12 04:04:39;;;;;;;8.55;4.43;;;1.30;99.90;;;;;;5078169;28;20031;-82
2021/12/12 04:07:09;;;;;;;8.88;4.00;;;1.30;99.90;;;;;;5078067;28;20024;-82
2021/12/12 04:09:36;;;;;;;5.60;4.05;;;1.20;99.90;;;;;;5078040;28;20493;-82
2021/12/12 04:12:06;;;;;;;5.63;3.85;;;1.20;99.90;;;;;;5078063;28;20120;-82
2021/12/12 04:14:32;;;;;;;8.63;4.28;;;1.20;99.90;;;;;;5077956;28;20031;-81
2021/12/12 04:17:02;;;;;;;6.45;3.80;;;1.30;99.90;;;;;;5077912;28;20028;-82
2021/12/12 04:19:28;;;;;;;8.15;3.53;;;1.30;99.90;;;;;;5096240;28;20027;-81
2021/12/12 04:21:55;;;;;;;7.70;3.90;;;1.40;99.90;;;;;;5095849;28;20027;-81
2021/12/12 04:24:28;;;;;;;6.93;3.80;;;1.50;99.90;;;;;;5095966;28;20024;-82
2021/12/12 04:26:54;;;;;;;7.82;4.13;;;1.40;99.90;;;;;;5096069;28;20529;-82
2021/12/12 04:29:22;;;;;;;6.18;3.60;;;1.40;99.90;;;;;;5078246;28;20032;-82
2021/12/12 04:31:58;;;;;;;5.50;3.47;;;1.30;99.90;;;;;;5077768;28;20392;-82
2021/12/12 04:34:28;;;;;;;5.22;3.53;;;1.40;99.90;;;;;;5077619;28;20032;-82
2021/12/12 04:36:56;;;;;;;5.78;3.22;;;1.30;99.90;;;;;;5077687;28;20024;-82
2021/12/12 04:39:25;;;;;;;7.50;3.97;;;1.20;99.90;;;;;;5077264;28;20047;-82
2021/12/12 04:41:55;;;;;;;5.18;3.50;;;1.20;99.90;;;;;;5077407;28;20024;-82
2021/12/12 04:44:32;;;;;;;5.05;3.47;;;1.20;99.90;;;;;;5095862;28;20024;-82
2021/12/12 04:50:18;;;;;;;7.22;3.42;;;1.20;99.90;;;;;;5096054;28;20074;-82
2021/12/12 04:53:15;;;;;;;5.90;3.88;;;1.10;99.90;;;;;;5095426;28;20027;-82
2021/12/12 04:55:54;;;;;;;5.70;3.78;;;1.10;99.90;;;;;;5094264;28;20048;-82
2021/12/12 04:58:35;;;;;;;5.85;3.78;;;1.10;99.90;;;;;;5094528;28;20422;-82
2021/12/12 05:01:13;;;;;;;7.38;3.78;;;1.10;99.90;;;;;;5077127;28;20024;-83
2021/12/12 05:04:01;;;;;;;7.45;3.50;;;1.10;99.90;;;;;;5077149;28;20447;-82
2021/12/12 05:06:46;;;;;;;5.25;3.92;;;1.20;99.90;;;;;;5077149;28;20023;-82
2021/12/12 05:09:31;;;;;;;6.15;4.20;;;1.10;99.90;;;;;;5077152;28;20024;-83
2021/12/12 05:12:16;;;;;;;5.38;4.15;;;1.00;99.90;;;;;;5095276;28;20095;-81
2021/12/12 05:14:51;;;;;;;7.78;3.55;;;1.00;99.90;;;;;;5076880;28;20035;-82
2021/12/12 05:17:36;;;;;;;7.15;3.65;;;1.20;99.90;;;;;;5095203;28;20031;-82
2021/12/12 05:20:07;;;;;;;10.40;3.78;;;1.20;99.90;;;;;;5076920;28;20383;-82
2021/12/12 05:22:37;;;;;;;7.80;3.70;;;1.40;99.90;;;;;;5095009;28;20475;-82
2021/12/12 05:25:08;;;;;;;5.35;3.55;;;1.50;99.90;;;;;;5077031;28;20063;-82
2021/12/12 05:27:35;;;;;;;9.63;6.03;;;1.50;99.90;;;;;;5076475;28;20028;-82
2021/12/12 05:30:10;;;;;;;13.38;8.77;;;1.60;99.90;;;;;;5076236;28;20032;-82
2021/12/12 05:32:37;;;;;;;8.13;5.22;;;1.50;99.90;;;;;;5076138;28;20028;-82
2021/12/12 05:35:06;;;;;;;10.30;5.63;;;1.50;99.90;;;;;;5076006;28;20047;-82
2021/12/12 05:37:33;;;;;;;8.00;5.32;;;1.50;99.90;;;;;;5076007;28;20027;-82
2021/12/12 05:40:02;;;;;;;7.78;5.78;;;1.50;99.90;;;;;;5072445;28;20088;-82
2021/12/12 05:42:29;;;;;;;7.65;4.68;;;1.40;99.90;;;;;;5074455;28;20013;-82
2021/12/12 05:44:56;;;;;;;7.45;4.35;;;1.40;99.90;;;;;;5089509;28;20032;-82
2021/12/12 05:47:22;;;;;;;6.55;4.68;;;1.30;99.90;;;;;;5089380;28;20428;-83
2021/12/12 05:49:48;;;;;;;6.88;4.28;;;1.40;99.90;;;;;;5089390;28;20027;-82
2021/12/12 05:52:16;;;;;;;8.25;4.50;;;1.30;99.90;;;;;;5073635;28;20016;-83
2021/12/12 05:54:46;;;;;;;10.18;6.90;;;1.30;99.90;;;;;;5089189;28;20451;-83
2021/12/12 05:57:13;;;;;;;8.70;5.68;;;1.50;99.90;;;;;;5089243;28;20071;-83
2021/12/12 05:59:40;;;;;;;12.40;7.60;;;1.40;99.90;;;;;;5073844;28;20074;-82
2021/12/12 06:02:06;;;;;;;9.80;7.32;;;1.40;99.90;;;;;;5089091;28;20027;-82
2021/12/12 06:04:34;;;;;;;8.20;5.70;;;1.40;99.90;;;;;;5089009;28;20086;-82
2021/12/12 06:07:03;;;;;;;11.38;6.78;;;1.40;99.90;;;;;;5088943;28;20028;-83
2021/12/12 06:09:30;;;;;;;9.02;6.68;;;1.40;99.90;;;;;;5072397;28;20511;-83
2021/12/12 06:11:57;;;;;;;10.10;6.03;;;1.30;99.90;;;;;;5073333;28;20045;-82
2021/12/12 06:14:24;;;;;;;9.65;6.70;;;1.30;99.90;;;;;;5088805;28;20035;-82
2021/12/12 06:16:50;;;;;;;11.63;7.30;;;1.10;99.90;;;;;;5088851;28;20070;-83
2021/12/12 06:19:22;;;;;;;8.63;5.43;;;1.20;99.90;;;;;;5088796;28;20023;-83
2021/12/12 06:21:57;;;;;;;10.38;6.82;;;1.30;99.90;;;;;;5088749;28;20473;-83
2021/12/12 06:24:26;;;;;;;12.38;6.32;;;1.30;99.90;;;;;;5088627;28;20070;-83
2021/12/12 06:26:54;;;;;;;11.55;6.95;;;1.20;99.90;;;;;;5088731;28;20024;-82
2021/12/12 06:29:19;;;;;;;10.20;6.72;;;1.00;99.90;;;;;;5073298;28;20024;-82
2021/12/12 06:31:48;;;;;;;9.23;5.28;;;0.90;99.90;;;;;;5089906;28;20099;-82
2021/12/12 06:34:14;;;;;;;10.75;5.70;;;1.00;99.90;;;;;;5089521;28;20090;-83
2021/12/12 06:36:41;;;;;;;8.60;5.60;;;1.00;99.90;;;;;;5088519;28;20017;-83
2021/12/12 06:39:10;;;;;;;8.48;4.88;;;1.10;99.90;;;;;;5085149;28;20040;-82
2021/12/12 06:41:36;;;;;;;7.80;5.68;;;1.00;99.90;;;;;;5093089;28;20055;-82
2021/12/12 06:44:04;;;;;;;8.55;5.80;;;0.90;99.90;;;;;;5074944;28;20069;-83
2021/12/12 06:46:31;;;;;;;7.55;5.85;;;0.90;99.90;;;;;;5074976;28;20494;-82
2021/12/12 06:48:58;;;;;;;11.57;5.60;;;1.10;99.90;;;;;;5092954;28;20031;-82
2021/12/12 06:51:26;;;;;;;10.40;5.63;;;1.10;99.90;;;;;;5074884;28;20032;-82
2021/12/12 06:53:53;;;;;;;9.88;7.50;;;1.20;99.90;;;;;;5092946;28;20321;-82
2021/12/12 06:56:20;;;;;;;9.80;5.85;;;1.20;99.90;;;;;;5074848;28;20058;-82
2021/12/12 06:58:48;;;;;;;8.95;5.70;;;1.10;99.90;;;;;;5074818;28;20475;-82
2021/12/12 07:01:18;;;;;;;8.07;5.35;;;1.10;99.90;;;;;;5074713;28;20020;-82
2021/12/12 07:03:46;;;;;;;8.55;5.47;;;1.20;99.90;;;;;;5075024;28;20024;-82
2021/12/12 07:06:16;;;;;;;8.77;6.10;;;1.30;99.90;;;;;;5074658;28;20492;-82
2021/12/12 07:08:42;;;;;;;6.35;4.72;;;1.30;99.90;;;;;;5075474;28;20452;-82
2021/12/12 07:11:08;;;;;;;7.45;5.15;;;1.30;99.90;;;;;;5092860;28;20020;-82
2021/12/12 07:13:34;;;;;;;12.73;7.25;;;1.30;99.90;;;;;;5074546;28;20029;-82
2021/12/12 07:16:02;;;;;;;11.05;7.88;;;1.20;99.90;;;;;;5074547;28;20431;-82
2021/12/12 07:18:32;;;;;;;10.02;7.00;;;1.30;99.90;;;;;;5074523;28;20020;-82
2021/12/12 07:21:04;;;;;;;10.73;6.72;;;1.30;99.90;;;;;;5093869;28;20016;-82
2021/12/12 07:23:31;;;;;;;7.97;5.75;;;1.10;99.90;;;;;;5078688;28;20020;-82
2021/12/12 07:25:59;;;;;;;8.07;5.15;;;1.00;99.90;;;;;;5078812;28;20415;-82
2021/12/12 07:28:28;;;;;;;7.50;5.22;;;1.30;99.90;;;;;;5096993;28;20028;-82
2021/12/12 07:30:57;;;;;;;6.95;5.38;;;1.30;99.90;;;;;;5078628;28;20032;-82
2021/12/12 07:33:23;;;;;;;8.73;5.45;;;1.30;99.90;;;;;;5096701;28;20020;-81
2021/12/12 07:35:50;;;;;;;8.88;5.32;;;1.30;99.90;;;;;;5096668;28;20028;-82
2021/12/12 07:38:17;;;;;;;8.95;5.05;;;1.20;99.90;;;;;;5078217;28;20044;-82
2021/12/12 07:40:46;;;;;;;7.00;4.97;;;1.10;99.90;;;;;;5078267;28;20061;-82
2021/12/12 07:43:12;;;;;;;8.65;5.47;;;1.20;99.90;;;;;;5096499;28;20484;-81
2021/12/12 07:45:39;;;;;;;6.57;5.45;;;1.20;99.90;;;;;;5096406;28;20028;-82
2021/12/12 07:48:08;;;;;;;9.30;4.97;;;1.30;99.90;;;;;;5096258;28;20103;-82
2021/12/12 07:50:34;;;;;;;8.10;5.25;;;1.30;99.90;;;;;;5096196;28;20142;-82
2021/12/12 07:53:00;;;;;;;7.22;5.40;;;1.40;99.90;;;;;;5096266;28;20440;-83
2021/12/12 07:55:27;;;;;;;7.10;5.07;;;1.70;99.90;;;;;;5077912;28;20044;-82
2021/12/12 07:57:54;;;;;;;7.18;4.93;;;2.00;99.90;;;;;;5077944;28;20133;-82
2021/12/12 08:00:23;;;;;;;8.73;5.10;;;2.20;99.90;;;;;;5077990;28;20016;-82
2021/12/12 08:02:52;;;;;;;6.95;5.30;;;2.00;99.90;;;;;;5077839;28;20030;-82
2021/12/12 08:05:20;;;;;;;8.10;4.80;;;2.00;99.90;;;;;;5077739;28;20020;-81
2021/12/12 08:07:46;;;;;;;6.65;4.80;;;2.00;99.90;;;;;;5077745;28;20032;-81
2021/12/12 08:10:15;;;;;;;7.97;5.20;;;2.10;99.90;;;;;;5077749;28;20491;-82
2021/12/12 08:12:42;;;;;;;7.13;5.10;;;2.30;99.90;;;;;;5095920;28;20024;-82
2021/12/12 08:15:10;;;;;;;7.28;5.28;;;2.40;99.90;;;;;;5077655;28;20479;-82
2021/12/12 08:17:37;;;;;;;20.80;9.25;;;2.50;99.90;;;;;;5061392;28;20077;-82
2021/12/12 08:20:05;;;;;;;18.45;10.20;;;2.30;99.90;;;;;;5077594;28;20055;-82
2021/12/12 08:22:31;;;;;;;5.95;4.78;;;2.20;99.90;;;;;;5095774;28;20407;-82
2021/12/12 08:25:04;;;;;;;5.97;4.15;;;2.00;99.90;;;;;;5077554;28;20028;-82
2021/12/12 08:27:30;;;;;;;8.02;4.57;;;1.90;99.90;;;;;;5077396;28;20318;-82
2021/12/12 08:29:57;;;;;;;6.55;4.50;;;1.90;99.90;;;;;;5095508;28;20032;-82
2021/12/12 08:32:23;;;;;;;9.07;4.90;;;1.90;99.90;;;;;;5076141;28;20116;-82
2021/12/12 08:34:51;;;;;;;6.82;4.30;;;2.00;99.90;;;;;;5077189;28;20453;-82
2021/12/12 08:37:18;;;;;;;7.68;4.53;;;2.00;99.90;;;;;;5077383;28;20053;-82
2021/12/12 08:39:45;;;;;;;5.82;4.47;;;2.00;99.90;;;;;;5095210;28;20126;-82
2021/12/12 08:42:12;;;;;;;9.68;4.97;;;2.10;99.90;;;;;;5077166;28;20081;-82
2021/12/12 08:44:38;;;;;;;7.00;5.15;;;2.10;99.90;;;;;;5095241;28;20449;-83
2021/12/12 08:47:09;;;;;;;8.43;5.10;;;2.00;99.90;;;;;;5077066;28;20024;-82
2021/12/12 08:49:37;;;;;;;9.13;4.72;;;2.20;99.90;;;;;;5076914;28;20020;-82
2021/12/12 08:52:06;;;;;;;7.88;4.72;;;2.10;99.90;;;;;;5076788;28;20024;-82
2021/12/12 08:54:35;;;;;;;6.30;4.70;;;2.20;99.90;;;;;;5076820;28;20024;-82
2021/12/12 08:57:37;;;;;;;8.65;4.97;;;2.30;99.90;;;;;;5095323;28;20031;-82
2021/12/12 09:00:08;;;;;;;7.32;4.55;;;2.20;99.90;;;;;;5076851;28;20051;-82
2021/12/12 09:02:35;;;;;;;8.88;5.22;;;2.30;99.90;;;;;;5076764;28;20020;-82
2021/12/12 09:05:08;;;;;;;7.60;5.28;;;2.40;99.90;;;;;;5094859;28;20392;-82
2021/12/12 09:07:44;;;;;;;4.97;3.78;;;2.50;99.90;;;;;;5095123;28;20028;-82
2021/12/12 09:10:21;;;;;;;6.25;4.22;;;2.60;99.90;;;;;;5076619;28;20085;-82
2021/12/12 09:13:11;;;;;;;7.03;3.65;;;2.80;99.90;;;;;;5076659;28;20024;-82
2021/12/12 09:15:44;;;;;;;5.38;4.30;;;2.90;99.90;;;;;;5076877;28;20427;-82
2021/12/12 09:18:22;;;;;;;6.93;4.03;;;3.10;99.90;;;;;;5076633;28;20020;-82
2021/12/12 09:21:12;;;;;;;7.50;3.95;;;3.10;99.90;;;;;;5076500;28;20032;-82
2021/12/12 09:23:45;;;;;;;4.72;3.58;;;3.10;99.90;;;;;;5094440;28;20061;-81
2021/12/12 09:26:21;;;;;;;6.00;4.35;;;3.00;99.90;;;;;;5076511;28;20030;-83
2021/12/12 09:29:10;;;;;;;5.90;3.50;;;3.00;99.90;;;;;;5076388;28;20077;-81
2021/12/12 09:31:48;;;;;;;6.10;3.90;;;3.00;99.90;;;;;;5094418;28;20123;-81
2021/12/12 09:34:25;;;;;;;9.05;4.07;;;2.90;99.90;;;;;;5076303;28;20047;-82
2021/12/12 09:37:09;;;;;;;6.05;3.90;;;2.90;99.90;;;;;;5076816;28;20024;-82
2021/12/12 09:39:43;;;;;;;5.47;3.88;;;2.90;99.90;;;;;;5094208;28;20040;-81
2021/12/12 09:42:31;;;;;;;6.60;3.65;;;2.90;99.90;;;;;;5094341;28;20032;-82
2021/12/12 09:45:28;;;;;;;4.88;3.58;;;2.90;99.90;;;;;;5094273;28;20056;-82
2021/12/12 09:48:14;;;;;;;9.70;4.55;;;3.10;99.90;;;;;;5075813;28;20064;-80
2021/12/12 09:54:01;;;;;;;8.82;4.63;;;2.80;99.90;;;;;;5094337;28;20597;-81
2021/12/12 09:56:37;;;;;;;10.63;6.40;;;3.00;99.90;;;;;;5075683;28;20024;-81
2021/12/12 09:59:12;;;;;;;9.25;5.35;;;3.10;99.90;;;;;;5075564;28;20020;-81
2021/12/12 10:01:52;;;;;;;5.05;3.85;;;3.20;99.90;;;;;;5093845;28;20067;-81
2021/12/12 10:04:25;;;;;;;5.53;4.13;;;3.20;99.90;;;;;;5075597;28;20028;-81
2021/12/12 10:07:13;;;;;;;6.30;4.45;;;3.10;99.90;;;;;;5094360;28;20024;-81
2021/12/12 10:09:59;;;;;;;8.27;3.83;;;3.00;99.90;;;;;;5075440;28;20059;-81
2021/12/12 10:12:30;;;;;;;4.88;3.28;;;3.20;99.90;;;;;;5075483;28;20024;-80
2021/12/12 10:15:22;;;;;;;7.53;3.80;;;3.20;99.90;;;;;;5075300;28;20020;-81
2021/12/12 10:18:15;;;;;;;5.57;3.55;;;3.40;99.90;;;;;;5093562;28;20418;-81
2021/12/12 10:20:51;;;;;;;5.07;3.53;;;3.40;99.90;;;;;;5062028;28;20484;-81
2021/12/12 10:23:29;;;;;;;5.03;3.80;;;3.40;99.90;;;;;;5075332;28;20024;-81
2021/12/12 10:26:03;;;;;;;7.32;3.75;;;3.40;99.90;;;;;;5075333;28;20470;-81
2021/12/12 10:28:41;;;;;;;8.43;3.67;;;3.40;99.90;;;;;;5093497;28;20551;-81
2021/12/12 10:31:25;;;;;;;4.45;3.25;;;3.30;99.90;;;;;;5075247;28;20531;-80
2021/12/12 10:34:02;;;;;;;5.35;3.47;;;3.40;99.90;;;;;;5075108;28;20506;-81
2021/12/12 10:36:50;;;;;;;5.65;3.60;;;3.50;99.90;;;;;;5075382;28;20457;-81
2021/12/12 10:39:21;;;;;;;5.28;3.47;;;3.60;99.90;;;;;;5074841;28;20040;-82
2021/12/12 10:41:53;;;;;;;7.43;3.85;;;3.70;99.90;;;;;;5074969;28;20082;-81
2021/12/12 10:44:46;;;;;;;5.85;3.53;;;3.60;99.90;;;;;;5075063;28;20502;-81
2021/12/12 10:47:13;;;;;;;5.45;3.45;;;3.80;99.90;;;;;;5062360;28;20499;-81
2021/12/12 10:49:52;;;;;;;4.63;3.08;;;3.80;99.90;;;;;;5093126;28;20024;-81
2021/12/12 10:52:51;;;;;;;4.75;3.30;;;4.30;99.90;;;;;;5093274;28;20488;-81
2021/12/12 10:55:23;;;;;;;6.95;3.17;;;4.40;99.90;;;;;;5092885;28;20442;-80
2021/12/12 10:57:57;;;;;;;3.97;3.30;;;4.20;99.90;;;;;;5075102;28;20126;-81
2021/12/12 11:00:28;;;;;;;5.38;3.28;;;4.30;99.90;;;;;;5075205;28;20115;-80
2021/12/12 11:02:59;;;;;;;4.57;2.95;;;4.40;99.90;;;;;;5074958;28;20448;-82
2021/12/12 11:05:39;;;;;;;4.82;3.58;;;4.40;99.90;;;;;;5074933;28;20475;-81
2021/12/12 11:08:27;;;;;;;4.70;3.20;;;4.30;99.90;;;;;;5093274;28;20034;-80
2021/12/12 11:10:56;;;;;;;5.82;3.00;;;4.10;99.90;;;;;;5074796;28;20038;-81
2021/12/12 11:13:49;;;;;;;5.82;2.83;;;4.00;99.90;;;;;;5092847;28;20107;-81
2021/12/12 11:16:22;;;;;;;5.68;3.13;;;3.90;99.90;;;;;;5092896;28;20030;-81
2021/12/12 11:19:12;;;;;;;4.60;2.95;;;3.80;99.90;;;;;;5074789;28;20026;-81
2021/12/12 11:21:44;;;;;;;5.10;2.70;;;3.80;99.90;;;;;;5074865;28;20042;-80
2021/12/12 11:24:24;;;;;;;3.75;2.72;;;3.90;99.90;;;;;;5092843;28;20455;-82
2021/12/12 11:27:14;;;;;;;5.07;2.67;;;3.90;99.90;;;;;;5074799;28;20391;-81
2021/12/12 11:29:50;;;;;;;5.13;2.58;;;4.00;99.90;;;;;;5074752;28;20028;-81
2021/12/12 11:32:24;;;;;;;5.88;2.80;;;4.20;99.90;;;;;;5092978;28;20034;-81
2021/12/12 11:34:52;;;;;;;3.90;2.70;;;4.50;99.90;;;;;;5074536;28;20119;-82
2021/12/12 11:38:03;;;;;;;3.45;2.47;;;4.50;99.90;;;;;;5074570;28;20046;-81
2021/12/12 11:40:42;;;;;;;4.78;2.47;;;4.40;99.90;;;;;;5054012;28;20040;-81
2021/12/12 11:43:20;;;;;;;5.70;3.17;;;4.30;99.90;;;;;;5074486;28;20020;-81
2021/12/12 11:46:00;;;;;;;4.53;2.90;;;4.20;99.90;;;;;;5075035;28;20474;-81
2021/12/12 11:49:00;;;;;;;4.90;3.20;;;4.20;99.90;;;;;;5092864;28;20376;-81
2021/12/12 11:51:48;;;;;;;5.00;3.00;;;4.20;99.90;;;;;;5074526;28;20065;-81
2021/12/12 11:54:40;;;;;;;4.22;2.70;;;4.40;99.90;;;;;;5074405;28;20047;-80
2021/12/12 11:57:21;;;;;;;5.93;3.50;;;4.40;99.90;;;;;;5074486;28;20024;-81
2021/12/12 12:00:03;;;;;;;4.82;2.50;;;4.40;99.90;;;;;;5074416;28;20021;-81
2021/12/12 12:02:35;;;;;;;6.10;3.00;;;4.50;99.90;;;;;;5092614;28;20020;-81
2021/12/12 12:05:14;;;;;;;5.30;3.10;;;4.70;99.90;;;;;;5092470;28;20408;-80
2021/12/12 12:08:13;;;;;;;7.18;3.63;;;4.80;99.90;;;;;;5076475;28;20387;-81
2021/12/12 12:10:43;;;;;;;6.40;3.97;;;4.80;99.90;;;;;;5096163;28;20506;-81
2021/12/12 12:13:15;;;;;;;3.97;2.50;;;4.60;99.90;;;;;;5096024;28;20410;-80
2021/12/12 12:15:53;;;;;;;5.50;3.35;;;4.20;99.90;;;;;;5095907;28;20475;-80
2021/12/12 12:18:37;;;;;;;5.05;2.80;;;4.10;99.90;;;;;;5077783;28;20054;-80
2021/12/12 12:21:09;;;;;;;;;;;4.00;99.90;;;;;;5078215;28;20467;-81
2021/12/12 12:26:54;;;;;;;3.67;2.83;;;3.90;99.90;;;;;;5095868;28;20020;-80
2021/12/12 12:29:32;;;;;;;4.72;2.90;;;3.90;99.90;;;;;;5096196;28;20364;-80
2021/12/12 12:32:06;;;;;;;6.50;3.13;;;4.10;99.90;;;;;;5096087;28;20424;-80
2021/12/12 12:34:51;;;;;;;4.85;2.97;;;4.10;99.90;;;;;;5077415;28;20035;-80
2021/12/12 12:37:41;;;;;;;4.18;3.10;;;4.10;99.90;;;;;;5077424;28;20024;-81
2021/12/12 12:40:28;;;;;;;4.38;2.47;;;4.10;99.90;;;;;;5077402;28;20044;-81
2021/12/12 12:43:16;;;;;;;4.30;2.60;;;4.10;99.90;;;;;;5077330;28;20049;-80
2021/12/12 12:46:03;;;;;;;6.53;4.07;;;4.10;99.90;;;;;;5077376;28;20028;-80
2021/12/12 12:49:05;;;;;;;5.57;3.00;;;4.30;99.90;;;;;;5095392;28;20044;-81
2021/12/12 12:52:02;;;;;;;4.10;2.28;;;4.20;99.90;;;;;;5095394;28;20027;-81
2021/12/12 12:54:42;;;;;;;3.35;2.40;;;4.20;99.90;;;;;;5077053;28;20028;-81
2021/12/12 12:57:34;;;;;;;3.72;2.25;;;4.20;99.90;;;;;;5077141;28;20479;-80
2021/12/12 13:00:09;;;;;;;4.22;2.30;;;4.20;99.90;;;;;;5077959;28;20039;-80
2021/12/12 13:02:56;;;;;;;5.22;3.22;;;4.10;99.90;;;;;;5077110;28;20463;-81
2021/12/12 13:05:39;;;;;;;7.30;2.63;;;4.10;99.90;;;;;;5095461;28;20036;-81
2021/12/12 13:08:49;;;;;;;3.78;2.67;;;4.00;99.90;;;;;;5077025;28;20069;-81
2021/12/12 13:11:27;;;;;;;4.65;2.35;;;3.90;99.90;;;;;;5076800;28;20047;-81
2021/12/12 13:14:06;;;;;;;2.97;2.10;;;3.90;99.90;;;;;;5094924;28;20020;-81
2021/12/12 13:17:17;;;;;;;3.83;2.42;;;4.00;99.90;;;;;;5076715;28;20392;-81
2021/12/12 13:20:12;;;;;;;4.88;2.80;;;3.90;99.90;;;;;;4976385;28;20109;-80
2021/12/12 13:22:49;;;;;;;5.10;2.97;;;3.90;99.90;;;;;;4976885;28;20027;-81
2021/12/12 13:25:34;;;;;;;6.40;2.95;;;4.00;99.90;;;;;;4977055;28;20490;-82
2021/12/12 13:28:27;;;;;;;9.63;4.45;;;4.00;99.90;;;;;;4976954;28;20129;-82
2021/12/12 13:31:06;;;;;;;9.35;3.22;;;4.10;99.90;;;;;;4993026;28;20034;-81
2021/12/12 13:33:43;;;;;;;4.85;2.85;;;4.10;99.90;;;;;;4976661;28;20061;-80
2021/12/12 13:36:15;;;;;;;5.30;3.50;;;4.00;99.90;;;;;;4976659;28;20026;-81
2021/12/12 13:39:19;;;;;;;9.35;3.60;;;4.10;99.90;;;;;;4992888;28;20058;-81
2021/12/12 13:42:06;;;;;;;5.65;3.15;;;4.10;99.90;;;;;;4992832;28;20059;-80
2021/12/12 13:45:02;;;;;;;4.68;2.72;;;4.10;99.90;;;;;;4976596;28;20081;-81
2021/12/12 13:47:45;;;;;;;4.60;2.78;;;4.20;99.90;;;;;;4992597;28;20034;-81
2021/12/12 13:50:17;;;;;;;4.97;2.70;;;4.20;99.90;;;;;;5018572;28;20032;-81
2021/12/12 13:52:53;;;;;;;4.25;2.47;;;4.20;99.90;;;;;;5094140;28;20107;-81
2021/12/12 13:55:45;;;;;;;7.15;3.47;;;4.20;99.90;;;;;;5094071;28;20430;-81
2021/12/12 13:58:10;;;;;;;8.38;4.18;;;4.10;99.90;;;;;;5038405;28;20036;-81